createdAt,value
2023-04-14T05:30:58.839Z,9.20
2023-04-14T05:33:27.397Z,9.30
2023-04-14T05:35:54.540Z,10.50
2023-04-14T05:38:22.009Z,11.40
2023-04-14T05:40:49.479Z,11.70
2023-04-14T05:43:17.229Z,12.50
2023-04-14T05:48:17.079Z,13.20
2023-04-14T05:50:45.761Z,14.30
2023-04-14T05:53:13.236Z,14.90
2023-04-14T05:55:41.286Z,15.10
2023-04-14T05:58:08.389Z,16.10
2023-04-14T06:00:35.611Z,17.00
2023-04-14T06:03:03.106Z,17.40
2023-04-14T06:05:30.955Z,17.20
2023-04-14T06:07:58.189Z,17.20
2023-04-14T06:10:25.655Z,17.70
2023-04-14T06:12:52.786Z,18.50
2023-04-14T06:15:19.933Z,18.90
2023-04-14T06:17:48.257Z,19.10
2023-04-14T06:20:15.515Z,19.30
2023-04-14T06:22:43.338Z,19.00
2023-04-14T06:25:11.220Z,19.40
2023-04-14T06:27:38.379Z,19.20
2023-04-14T06:30:06.843Z,19.20
2023-04-14T06:32:34.301Z,19.00
2023-04-14T06:35:01.523Z,18.40
2023-04-14T06:37:28.673Z,18.30
2023-04-14T06:39:56.319Z,18.40
2023-04-14T06:42:23.502Z,19.40
2023-04-14T06:44:50.648Z,19.50
2023-04-14T06:47:21.055Z,20.10
2023-04-14T06:49:48.333Z,19.60
2023-04-14T06:52:15.512Z,18.80
2023-04-14T06:54:42.710Z,18.80
2023-04-14T06:57:12.830Z,18.40
2023-04-14T06:59:39.956Z,17.80
2023-04-14T07:02:07.656Z,18.10
2023-04-14T07:04:37.545Z,19.50
2023-04-14T07:07:04.799Z,19.30
2023-04-14T07:09:31.939Z,20.20
2023-04-14T07:11:59.316Z,18.80
2023-04-14T07:14:26.484Z,18.40
2023-04-14T07:16:54.081Z,18.40
2023-04-14T07:19:21.245Z,18.50
2023-04-14T07:21:48.572Z,17.40
2023-04-14T07:24:15.956Z,17.90
2023-04-14T07:26:44.232Z,18.20
2023-04-14T07:29:12.497Z,18.60
2023-04-14T07:31:40.203Z,18.20
2023-04-14T07:34:08.041Z,19.00
2023-04-14T07:36:35.292Z,18.30
2023-04-14T07:39:02.441Z,18.80
2023-04-14T07:41:29.745Z,18.90
2023-04-14T07:43:59.338Z,18.60
2023-04-14T07:46:27.829Z,18.50
2023-04-14T07:48:55.025Z,18.70
2023-04-14T07:51:22.191Z,20.20
2023-04-14T07:53:50.961Z,19.60
2023-04-14T07:56:18.206Z,19.80
2023-04-14T07:58:45.685Z,19.60
2023-04-14T08:01:13.002Z,18.20
2023-04-14T08:03:42.185Z,19.90
2023-04-14T08:06:11.821Z,20.40
2023-04-14T08:08:39.976Z,19.30
2023-04-14T08:11:07.287Z,19.50
2023-04-14T08:13:34.530Z,19.20
2023-04-14T08:16:01.751Z,20.30
2023-04-14T08:18:28.973Z,20.60
2023-04-14T08:20:56.410Z,20.70
2023-04-14T08:23:23.819Z,20.40
2023-04-14T08:25:50.937Z,20.40
2023-04-14T08:28:18.411Z,19.70
2023-04-14T08:30:45.642Z,20.00
2023-04-14T08:33:12.868Z,20.90
2023-04-14T08:35:42.287Z,20.40
2023-04-14T08:38:10.866Z,20.40
2023-04-14T08:40:43.328Z,19.70
2023-04-14T08:43:13.204Z,19.80
2023-04-14T08:45:43.540Z,19.80
2023-04-14T08:48:12.036Z,20.90
2023-04-14T08:50:46.782Z,20.00
2023-04-14T08:53:14.853Z,19.60
2023-04-14T08:55:43.237Z,20.20
2023-04-14T08:58:11.216Z,18.90
2023-04-14T09:00:40.214Z,19.80
2023-04-14T09:03:09.287Z,19.60
2023-04-14T09:05:38.074Z,19.60
2023-04-14T09:08:05.577Z,19.90
2023-04-14T09:10:32.862Z,20.70
2023-04-14T09:13:01.386Z,21.30
2023-04-14T09:15:29.356Z,20.80
2023-04-14T09:17:57.192Z,20.40
2023-04-14T09:20:35.924Z,20.60
2023-04-14T09:23:09.350Z,20.50
2023-04-14T09:25:38.850Z,20.50
2023-04-14T09:28:06.079Z,20.50
2023-04-14T09:30:33.375Z,19.50
2023-04-14T09:33:05.198Z,19.60
2023-04-14T09:35:45.656Z,19.90
2023-04-14T09:38:13.264Z,20.50
2023-04-14T09:40:43.728Z,20.60
2023-04-14T09:43:27.264Z,20.30
2023-04-14T09:45:55.989Z,20.40
2023-04-14T09:48:24.350Z,20.00
2023-04-14T09:51:00.085Z,19.80
2023-04-14T09:53:34.813Z,19.50
2023-04-14T09:56:05.171Z,20.00
2023-04-14T09:58:37.936Z,20.60
2023-04-14T10:01:17.031Z,19.60
2023-04-14T10:03:49.031Z,19.90
2023-04-14T10:06:21.638Z,20.00
2023-04-14T10:08:54.099Z,19.20
2023-04-14T10:11:23.035Z,18.50
2023-04-14T10:14:03.747Z,18.70
2023-04-14T10:16:31.774Z,19.00
2023-04-14T10:18:59.078Z,19.80
2023-04-14T10:21:27.899Z,19.00
2023-04-14T10:23:58.527Z,20.20
2023-04-14T10:26:26.767Z,19.90
2023-04-14T10:28:56.186Z,19.80
2023-04-14T10:31:32.862Z,19.30
2023-04-14T10:34:14.708Z,19.10
2023-04-14T10:36:43.293Z,18.40
2023-04-14T10:39:12.292Z,18.40
2023-04-14T10:41:47.244Z,17.90
2023-04-14T10:44:35.379Z,17.70
2023-04-14T10:47:05.192Z,18.20
2023-04-14T10:49:38.201Z,18.60
2023-04-14T10:52:27.230Z,19.10
2023-04-14T10:55:07.743Z,19.10
2023-04-14T10:57:45.820Z,19.70
2023-04-14T11:00:25.222Z,19.40
2023-04-14T11:03:13.028Z,19.60
2023-04-14T11:05:44.826Z,19.00
2023-04-14T11:08:15.844Z,18.70
2023-04-14T11:10:49.535Z,18.00
2023-04-14T11:13:17.871Z,17.90
2023-04-14T11:15:47.101Z,18.30
2023-04-14T11:18:32.615Z,18.30
2023-04-14T11:21:04.857Z,18.40
2023-04-14T11:23:33.099Z,17.50
2023-04-14T11:26:01.522Z,16.70
2023-04-14T11:28:36.979Z,16.90
2023-04-14T11:31:06.412Z,16.50
2023-04-14T11:33:38.909Z,16.70
2023-04-14T11:36:07.462Z,17.30
2023-04-14T11:38:36.028Z,18.10
2023-04-14T11:41:04.174Z,18.00
2023-04-14T11:43:31.571Z,17.60
2023-04-14T11:46:00.746Z,17.20
2023-04-14T11:48:29.117Z,16.40
2023-04-14T11:51:02.653Z,16.90
2023-04-14T11:53:30.102Z,16.70
2023-04-14T11:55:57.689Z,16.90
2023-04-14T11:58:27.264Z,16.60
2023-04-14T12:00:56.289Z,16.10
2023-04-14T12:03:34.700Z,15.80
2023-04-14T12:06:03.274Z,15.60
2023-04-14T12:08:32.166Z,15.90
2023-04-14T12:11:13.317Z,16.00
2023-04-14T12:13:44.946Z,16.00
2023-04-14T12:16:13.376Z,15.80
2023-04-14T12:18:41.692Z,16.00
2023-04-14T12:21:11.722Z,15.70
2023-04-14T12:23:40.687Z,15.50
2023-04-14T12:26:12.131Z,15.40
2023-04-14T12:28:41.417Z,15.80
2023-04-14T12:31:09.490Z,15.90
2023-04-14T12:33:36.721Z,15.80
2023-04-14T12:36:10.179Z,15.90
2023-04-14T12:38:37.520Z,16.10
2023-04-14T12:41:05.428Z,15.80
2023-04-14T12:43:34.619Z,15.90
2023-04-14T12:46:07.648Z,15.40
2023-04-14T12:48:52.623Z,15.40
2023-04-14T12:51:20.677Z,15.30
2023-04-14T12:53:52.303Z,15.70
2023-04-14T12:56:22.745Z,15.60
2023-04-14T12:58:51.230Z,15.50
2023-04-14T13:01:23.630Z,15.90
2023-04-14T13:03:55.527Z,15.50
2023-04-14T13:06:24.547Z,15.70
2023-04-14T13:08:53.953Z,15.70
2023-04-14T13:11:23.416Z,15.50
2023-04-14T13:13:52.465Z,15.30
2023-04-14T13:16:20.956Z,15.60
2023-04-14T13:18:49.017Z,15.60
2023-04-14T13:21:16.685Z,15.70
2023-04-14T13:23:44.414Z,16.00
2023-04-14T13:26:12.251Z,16.20
2023-04-14T13:28:39.528Z,15.60
2023-04-14T13:31:07.257Z,15.30
2023-04-14T13:33:34.513Z,15.20
2023-04-14T13:36:02.991Z,15.10
2023-04-14T13:38:31.108Z,15.60
2023-04-14T13:40:58.426Z,15.40
2023-04-14T13:43:26.344Z,15.70
2023-04-14T13:45:56.938Z,15.70
2023-04-14T13:48:24.174Z,15.30
2023-04-14T13:50:51.835Z,15.30
2023-04-14T13:53:19.098Z,15.50
2023-04-14T13:55:46.708Z,15.60
2023-04-14T13:58:13.824Z,15.80
2023-04-14T14:00:41.433Z,15.70
2023-04-14T14:05:36.565Z,15.70
2023-04-14T14:08:03.739Z,15.50
2023-04-14T14:10:32.000Z,15.70
2023-04-14T14:12:59.440Z,15.50
2023-04-14T14:15:26.744Z,15.10
2023-04-14T14:17:57.012Z,15.10
2023-04-14T14:20:24.220Z,15.00
2023-04-14T14:22:51.479Z,14.80
2023-04-14T14:25:20.961Z,14.80
2023-04-14T14:27:51.553Z,15.00
2023-04-14T14:30:18.811Z,15.00
2023-04-14T14:32:46.007Z,14.80
2023-04-14T14:35:13.206Z,14.90
2023-04-14T14:37:42.112Z,15.00
2023-04-14T14:40:09.805Z,15.00
2023-04-14T14:42:37.200Z,14.80
2023-04-14T14:45:05.668Z,14.70
2023-04-14T14:47:34.143Z,14.70
2023-04-14T14:50:05.800Z,14.50
2023-04-14T14:52:35.243Z,14.30
2023-04-14T14:55:03.541Z,14.50
2023-04-14T14:57:31.205Z,14.40
2023-04-14T14:59:58.647Z,14.60
2023-04-14T15:02:26.335Z,14.70
2023-04-14T15:04:54.334Z,14.70
2023-04-14T15:07:21.522Z,14.70
2023-04-14T15:09:49.632Z,14.70
2023-04-14T15:12:17.506Z,14.90
2023-04-14T15:14:44.817Z,15.10
2023-04-14T15:17:12.037Z,16.10
2023-04-14T15:19:39.190Z,15.10
2023-04-14T15:22:06.337Z,15.10
2023-04-14T15:24:33.472Z,15.20
2023-04-14T15:27:01.785Z,14.90
2023-04-14T15:29:29.050Z,14.80
2023-04-14T15:31:56.412Z,14.80
2023-04-14T15:34:23.555Z,14.50
2023-04-14T15:36:50.730Z,14.50
2023-04-14T15:39:18.231Z,14.20
2023-04-14T15:41:47.529Z,14.20
2023-04-14T15:44:17.909Z,14.30
2023-04-14T15:46:45.405Z,14.30
2023-04-14T15:49:12.544Z,14.20
2023-04-14T15:51:39.647Z,14.20
2023-04-14T15:54:06.865Z,14.10
2023-04-14T15:56:35.562Z,14.00
2023-04-14T15:59:02.690Z,13.90
